Главная страница
METAR-TAF:

METAR-TAF

Аэропорты :

Масджид-Солейман, Иран

широта: 31-59N, долгота: 049-16E, высота над уровнем моря: 372 м

Текущие метеонаблюдения

Эта сводка был подготовлена 6 часа и 47 минут назад, в 19:52 UTC
Штиль
Температура 18°C
Влажность 59%
Давление 1016 hPa
Видимость 10 км и более
небольшая облачность на высоте 4000 фута

METAR: OIAI 261952Z 00000KT 9999 FEW040 18/10 Q1016

Время: 06:09 (02:39 UTC)


TAF: отсутствует

Метеонаблюдения и прогнозы для более 4000 аэропортов (сводки METAR и TAF).

Имеющиеся станции представлены на карте желтыми и красными точками.

Чтобы увидеть название станции, наведите на нее мышь.

Затем щелкните, чтобы увидеть метеонаблюдения и метеопрогнозы.

Управление картой: чтобы увеличить масштаб, щелкните зеленые кнопки с черным крестиком; чтобы уменьшить масштаб, щелкните зеленую кнопку с тире; для просмотра соседних карт щелкайте зеленые стрелки.


METAR-TAF: